Terminal Aerodrome Forecast
Issued by NWS Duluth, MN

Home | Current Version | Previous Version | Text Only | Print | Product List | Glossary On
Versions: 1 2 3 4 5 6 7 8 9 10 11 12 13 14 15 16 17 18 19 20 21 22 23 24 25 26 27 28 29 30 31 32
165
FTUS43 KDLH 210532
TAFINL
TAF
KINL 210532Z 2106/2206 07010KT 5SM -DZ BR SCT007 OVC019
     FM211000 06007KT 3SM -DZ BR OVC008
     FM211300 04008KT 3SM -SHRA BR OVC007
     FM212000 01008KT 4SM -SHRA BR OVC012
     FM220000 33005KT 4SM -SHRA BR SCT003 OVC007=

USA.gov is the U.S. government's official web portal to all federal, state and local government web resources and services.